Terminal Aerodrome Forecast
Issued by NWS

Home | Current Version | Previous Version | Text Only | Print | Product List | Glossary On
Versions: 1 2 3 4 5 6 7 8 9 10 11 12 13 14
000
FTUS46 KPDT 191720
TAFPSC
TAF
KPSC 191720Z 1918/2018 24017G27KT P6SM VCSH SCT060 BKN090
     FM200300 24011KT P6SM SCT060 OVC070
     FM200900 22009KT P6SM VCSH BKN060 OVC090=

USA.gov is the U.S. government's official web portal to all federal, state and local government web resources and services.